sensor_id;sensor_type;location;lat;lon;timestamp;P1;durP1;ratioP1;P2;durP2;ratioP2
55537;SDS011;41383;51.418;7.286;2022-08-21T00:01:05;8.95;;;5.10;;
55537;SDS011;41383;51.418;7.286;2022-08-21T00:03:35;10.15;;;5.43;;
55537;SDS011;41383;51.418;7.286;2022-08-21T00:06:00;10.60;;;5.55;;
55537;SDS011;41383;51.418;7.286;2022-08-21T00:08:25;12.43;;;6.30;;
55537;SDS011;41383;51.418;7.286;2022-08-21T00:10:51;13.00;;;6.05;;
55537;SDS011;41383;51.418;7.286;2022-08-21T00:13:18;14.87;;;7.10;;
55537;SDS011;41383;51.418;7.286;2022-08-21T00:15:44;18.42;;;6.18;;
55537;SDS011;41383;51.418;7.286;2022-08-21T00:18:10;10.15;;;4.32;;
55537;SDS011;41383;51.418;7.286;2022-08-21T00:20:36;11.65;;;5.80;;
55537;SDS011;41383;51.418;7.286;2022-08-21T00:23:02;11.45;;;5.70;;
55537;SDS011;41383;51.418;7.286;2022-08-21T00:25:28;9.73;;;5.13;;
55537;SDS011;41383;51.418;7.286;2022-08-21T00:27:54;9.40;;;5.45;;
55537;SDS011;41383;51.418;7.286;2022-08-21T00:30:20;11.10;;;5.10;;
55537;SDS011;41383;51.418;7.286;2022-08-21T00:32:47;9.75;;;5.63;;
55537;SDS011;41383;51.418;7.286;2022-08-21T00:35:14;13.93;;;5.75;;
55537;SDS011;41383;51.418;7.286;2022-08-21T00:37:42;10.85;;;5.00;;
55537;SDS011;41383;51.418;7.286;2022-08-21T00:40:09;27.65;;;5.80;;
55537;SDS011;41383;51.418;7.286;2022-08-21T00:42:37;10.43;;;6.07;;
55537;SDS011;41383;51.418;7.286;2022-08-21T00:45:04;12.13;;;5.30;;
55537;SDS011;41383;51.418;7.286;2022-08-21T00:47:31;11.75;;;5.35;;
55537;SDS011;41383;51.418;7.286;2022-08-21T00:49:57;16.60;;;5.13;;
55537;SDS011;41383;51.418;7.286;2022-08-21T00:52:24;11.30;;;4.88;;
55537;SDS011;41383;51.418;7.286;2022-08-21T00:54:54;15.80;;;6.18;;
55537;SDS011;41383;51.418;7.286;2022-08-21T00:57:24;13.35;;;5.35;;
55537;SDS011;41383;51.418;7.286;2022-08-21T00:59:54;10.40;;;5.82;;
55537;SDS011;41383;51.418;7.286;2022-08-21T01:02:24;13.32;;;5.38;;
55537;SDS011;41383;51.418;7.286;2022-08-21T01:04:49;10.02;;;5.70;;
55537;SDS011;41383;51.418;7.286;2022-08-21T01:07:15;11.23;;;5.35;;
55537;SDS011;41383;51.418;7.286;2022-08-21T01:09:41;13.75;;;7.38;;
55537;SDS011;41383;51.418;7.286;2022-08-21T01:12:07;13.80;;;5.40;;
55537;SDS011;41383;51.418;7.286;2022-08-21T01:14:34;7.15;;;4.35;;
55537;SDS011;41383;51.418;7.286;2022-08-21T01:17:00;10.52;;;5.30;;
55537;SDS011;41383;51.418;7.286;2022-08-21T01:19:28;15.00;;;7.18;;
55537;SDS011;41383;51.418;7.286;2022-08-21T01:21:54;13.98;;;6.22;;
55537;SDS011;41383;51.418;7.286;2022-08-21T01:24:19;10.52;;;5.72;;
55537;SDS011;41383;51.418;7.286;2022-08-21T01:26:46;11.07;;;5.15;;
55537;SDS011;41383;51.418;7.286;2022-08-21T01:32:03;13.35;;;4.55;;
55537;SDS011;41383;51.418;7.286;2022-08-21T01:34:32;12.98;;;5.53;;
55537;SDS011;41383;51.418;7.286;2022-08-21T01:36:58;17.35;;;5.25;;
55537;SDS011;41383;51.418;7.286;2022-08-21T01:39:24;11.80;;;6.10;;
55537;SDS011;41383;51.418;7.286;2022-08-21T01:41:49;9.75;;;4.90;;
55537;SDS011;41383;51.418;7.286;2022-08-21T01:44:14;17.23;;;5.65;;
55537;SDS011;41383;51.418;7.286;2022-08-21T01:46:40;16.02;;;5.72;;
55537;SDS011;41383;51.418;7.286;2022-08-21T01:49:05;12.15;;;4.30;;
55537;SDS011;41383;51.418;7.286;2022-08-21T01:51:31;13.40;;;5.45;;
55537;SDS011;41383;51.418;7.286;2022-08-21T01:53:57;9.55;;;5.10;;
55537;SDS011;41383;51.418;7.286;2022-08-21T01:56:22;10.18;;;4.57;;
55537;SDS011;41383;51.418;7.286;2022-08-21T01:58:49;10.55;;;5.65;;
55537;SDS011;41383;51.418;7.286;2022-08-21T02:01:14;16.25;;;5.95;;
55537;SDS011;41383;51.418;7.286;2022-08-21T02:03:40;10.43;;;4.85;;
55537;SDS011;41383;51.418;7.286;2022-08-21T02:06:06;11.07;;;5.43;;
55537;SDS011;41383;51.418;7.286;2022-08-21T02:08:32;9.38;;;5.28;;
55537;SDS011;41383;51.418;7.286;2022-08-21T02:10:58;13.35;;;6.18;;
55537;SDS011;41383;51.418;7.286;2022-08-21T02:13:23;14.50;;;6.90;;
55537;SDS011;41383;51.418;7.286;2022-08-21T02:15:49;18.52;;;7.88;;
55537;SDS011;41383;51.418;7.286;2022-08-21T02:18:14;13.20;;;7.83;;
55537;SDS011;41383;51.418;7.286;2022-08-21T02:20:40;11.90;;;6.53;;
55537;SDS011;41383;51.418;7.286;2022-08-21T02:23:09;13.32;;;6.20;;
55537;SDS011;41383;51.418;7.286;2022-08-21T02:25:36;11.20;;;6.38;;
55537;SDS011;41383;51.418;7.286;2022-08-21T02:28:03;17.65;;;7.45;;
55537;SDS011;41383;51.418;7.286;2022-08-21T02:30:32;23.48;;;7.20;;
55537;SDS011;41383;51.418;7.286;2022-08-21T02:33:00;14.82;;;6.60;;
55537;SDS011;41383;51.418;7.286;2022-08-21T02:35:25;12.18;;;5.85;;
55537;SDS011;41383;51.418;7.286;2022-08-21T02:37:55;19.13;;;6.28;;
55537;SDS011;41383;51.418;7.286;2022-08-21T02:40:24;17.05;;;6.68;;
55537;SDS011;41383;51.418;7.286;2022-08-21T02:42:52;14.88;;;6.07;;
55537;SDS011;41383;51.418;7.286;2022-08-21T02:45:18;11.20;;;6.65;;
55537;SDS011;41383;51.418;7.286;2022-08-21T02:47:50;9.63;;;6.70;;
55537;SDS011;41383;51.418;7.286;2022-08-21T02:50:20;14.15;;;7.18;;
55537;SDS011;41383;51.418;7.286;2022-08-21T02:52:48;18.58;;;8.23;;
55537;SDS011;41383;51.418;7.286;2022-08-21T02:55:14;13.73;;;6.82;;
55537;SDS011;41383;51.418;7.286;2022-08-21T02:57:39;15.23;;;6.57;;
55537;SDS011;41383;51.418;7.286;2022-08-21T03:00:05;17.92;;;7.03;;
55537;SDS011;41383;51.418;7.286;2022-08-21T03:02:32;13.50;;;6.72;;
55537;SDS011;41383;51.418;7.286;2022-08-21T03:04:57;15.07;;;7.15;;
55537;SDS011;41383;51.418;7.286;2022-08-21T03:07:22;12.18;;;6.25;;
55537;SDS011;41383;51.418;7.286;2022-08-21T03:09:48;21.05;;;7.65;;
55537;SDS011;41383;51.418;7.286;2022-08-21T03:12:13;11.90;;;6.57;;
55537;SDS011;41383;51.418;7.286;2022-08-21T03:14:38;11.40;;;6.78;;
55537;SDS011;41383;51.418;7.286;2022-08-21T03:17:04;12.18;;;9.23;;
55537;SDS011;41383;51.418;7.286;2022-08-21T03:19:29;19.58;;;7.43;;
55537;SDS011;41383;51.418;7.286;2022-08-21T03:21:55;11.40;;;6.13;;
55537;SDS011;41383;51.418;7.286;2022-08-21T03:24:20;12.20;;;6.72;;
55537;SDS011;41383;51.418;7.286;2022-08-21T03:26:45;11.57;;;5.90;;
55537;SDS011;41383;51.418;7.286;2022-08-21T03:29:11;12.98;;;7.22;;
55537;SDS011;41383;51.418;7.286;2022-08-21T03:31:36;11.03;;;7.00;;
55537;SDS011;41383;51.418;7.286;2022-08-21T03:34:01;14.00;;;6.90;;
55537;SDS011;41383;51.418;7.286;2022-08-21T03:36:26;10.47;;;7.30;;
55537;SDS011;41383;51.418;7.286;2022-08-21T03:38:52;13.05;;;6.30;;
55537;SDS011;41383;51.418;7.286;2022-08-21T03:41:17;13.60;;;7.55;;
55537;SDS011;41383;51.418;7.286;2022-08-21T03:43:42;15.05;;;8.40;;
55537;SDS011;41383;51.418;7.286;2022-08-21T03:46:08;11.80;;;6.88;;
55537;SDS011;41383;51.418;7.286;2022-08-21T03:48:34;14.38;;;7.25;;
55537;SDS011;41383;51.418;7.286;2022-08-21T03:51:00;13.52;;;8.55;;
55537;SDS011;41383;51.418;7.286;2022-08-21T03:53:26;24.30;;;7.47;;
55537;SDS011;41383;51.418;7.286;2022-08-21T03:55:52;11.32;;;6.30;;
55537;SDS011;41383;51.418;7.286;2022-08-21T03:58:19;12.90;;;7.53;;
55537;SDS011;41383;51.418;7.286;2022-08-21T04:00:47;12.48;;;6.28;;
55537;SDS011;41383;51.418;7.286;2022-08-21T04:03:16;11.95;;;6.72;;
55537;SDS011;41383;51.418;7.286;2022-08-21T04:05:42;11.68;;;6.95;;
55537;SDS011;41383;51.418;7.286;2022-08-21T04:08:07;14.48;;;7.53;;
55537;SDS011;41383;51.418;7.286;2022-08-21T04:10:33;16.83;;;8.55;;
55537;SDS011;41383;51.418;7.286;2022-08-21T04:13:01;15.18;;;7.55;;
55537;SDS011;41383;51.418;7.286;2022-08-21T04:15:28;12.85;;;7.63;;
55537;SDS011;41383;51.418;7.286;2022-08-21T04:17:53;16.05;;;8.18;;
55537;SDS011;41383;51.418;7.286;2022-08-21T04:20:19;12.52;;;7.57;;
55537;SDS011;41383;51.418;7.286;2022-08-21T04:22:46;17.00;;;7.55;;
55537;SDS011;41383;51.418;7.286;2022-08-21T04:25:13;13.13;;;7.15;;
55537;SDS011;41383;51.418;7.286;2022-08-21T04:27:39;10.93;;;6.57;;
55537;SDS011;41383;51.418;7.286;2022-08-21T04:30:08;11.18;;;6.45;;
55537;SDS011;41383;51.418;7.286;2022-08-21T04:32:34;14.32;;;7.32;;
55537;SDS011;41383;51.418;7.286;2022-08-21T04:35:05;10.82;;;6.15;;
55537;SDS011;41383;51.418;7.286;2022-08-21T04:37:34;15.70;;;8.07;;
55537;SDS011;41383;51.418;7.286;2022-08-21T04:40:00;12.48;;;6.93;;
55537;SDS011;41383;51.418;7.286;2022-08-21T04:42:26;12.35;;;6.93;;
55537;SDS011;41383;51.418;7.286;2022-08-21T04:44:52;18.27;;;8.07;;
55537;SDS011;41383;51.418;7.286;2022-08-21T04:47:18;13.90;;;8.05;;
55537;SDS011;41383;51.418;7.286;2022-08-21T04:49:44;13.80;;;8.60;;
55537;SDS011;41383;51.418;7.286;2022-08-21T04:52:10;15.20;;;8.32;;
55537;SDS011;41383;51.418;7.286;2022-08-21T04:54:38;11.05;;;5.95;;
55537;SDS011;41383;51.418;7.286;2022-08-21T04:57:05;14.02;;;6.82;;
55537;SDS011;41383;51.418;7.286;2022-08-21T04:59:41;11.52;;;6.88;;
55537;SDS011;41383;51.418;7.286;2022-08-21T05:02:09;16.92;;;6.80;;
55537;SDS011;41383;51.418;7.286;2022-08-21T05:04:36;14.27;;;7.45;;
55537;SDS011;41383;51.418;7.286;2022-08-21T05:07:06;11.25;;;6.07;;
55537;SDS011;41383;51.418;7.286;2022-08-21T05:09:35;12.98;;;7.30;;
55537;SDS011;41383;51.418;7.286;2022-08-21T05:12:03;13.25;;;6.43;;
55537;SDS011;41383;51.418;7.286;2022-08-21T05:14:28;14.20;;;6.70;;
55537;SDS011;41383;51.418;7.286;2022-08-21T05:16:54;10.35;;;6.20;;
55537;SDS011;41383;51.418;7.286;2022-08-21T05:19:19;12.47;;;6.60;;
55537;SDS011;41383;51.418;7.286;2022-08-21T05:21:45;10.27;;;5.75;;
55537;SDS011;41383;51.418;7.286;2022-08-21T05:24:12;13.85;;;7.55;;
55537;SDS011;41383;51.418;7.286;2022-08-21T05:26:38;13.75;;;6.85;;
55537;SDS011;41383;51.418;7.286;2022-08-21T05:29:04;12.50;;;5.65;;
55537;SDS011;41383;51.418;7.286;2022-08-21T05:31:31;13.13;;;6.63;;
55537;SDS011;41383;51.418;7.286;2022-08-21T05:33:56;11.10;;;6.32;;
55537;SDS011;41383;51.418;7.286;2022-08-21T05:36:22;14.27;;;6.75;;
55537;SDS011;41383;51.418;7.286;2022-08-21T05:38:47;9.40;;;5.80;;
55537;SDS011;41383;51.418;7.286;2022-08-21T05:41:12;11.52;;;6.90;;
55537;SDS011;41383;51.418;7.286;2022-08-21T05:43:38;12.25;;;5.50;;
55537;SDS011;41383;51.418;7.286;2022-08-21T05:46:04;14.18;;;6.20;;
55537;SDS011;41383;51.418;7.286;2022-08-21T05:48:30;16.73;;;6.47;;
55537;SDS011;41383;51.418;7.286;2022-08-21T05:50:57;12.95;;;6.40;;
55537;SDS011;41383;51.418;7.286;2022-08-21T05:53:22;11.68;;;5.45;;
55537;SDS011;41383;51.418;7.286;2022-08-21T05:55:49;9.50;;;6.32;;
55537;SDS011;41383;51.418;7.286;2022-08-21T05:58:18;12.90;;;7.65;;
55537;SDS011;41383;51.418;7.286;2022-08-21T06:00:45;14.23;;;7.25;;
55537;SDS011;41383;51.418;7.286;2022-08-21T06:03:24;15.00;;;5.75;;
55537;SDS011;41383;51.418;7.286;2022-08-21T06:05:53;9.43;;;6.63;;
55537;SDS011;41383;51.418;7.286;2022-08-21T06:08:20;11.77;;;6.75;;
55537;SDS011;41383;51.418;7.286;2022-08-21T06:10:47;8.38;;;5.25;;
55537;SDS011;41383;51.418;7.286;2022-08-21T06:13:14;14.32;;;7.75;;
55537;SDS011;41383;51.418;7.286;2022-08-21T06:15:41;17.90;;;6.57;;
55537;SDS011;41383;51.418;7.286;2022-08-21T06:18:07;12.85;;;6.80;;
55537;SDS011;41383;51.418;7.286;2022-08-21T06:20:32;14.20;;;6.82;;
55537;SDS011;41383;51.418;7.286;2022-08-21T06:22:58;9.93;;;5.93;;
55537;SDS011;41383;51.418;7.286;2022-08-21T06:25:24;12.88;;;6.35;;
55537;SDS011;41383;51.418;7.286;2022-08-21T06:27:50;12.55;;;6.00;;
55537;SDS011;41383;51.418;7.286;2022-08-21T06:30:15;14.15;;;6.88;;
55537;SDS011;41383;51.418;7.286;2022-08-21T06:32:41;9.68;;;6.32;;
55537;SDS011;41383;51.418;7.286;2022-08-21T06:35:06;11.88;;;7.45;;
55537;SDS011;41383;51.418;7.286;2022-08-21T06:37:32;15.70;;;7.30;;
55537;SDS011;41383;51.418;7.286;2022-08-21T06:39:58;13.00;;;8.45;;
55537;SDS011;41383;51.418;7.286;2022-08-21T06:42:23;12.85;;;7.88;;
55537;SDS011;41383;51.418;7.286;2022-08-21T06:44:49;13.50;;;8.25;;
55537;SDS011;41383;51.418;7.286;2022-08-21T06:47:14;17.13;;;8.55;;
55537;SDS011;41383;51.418;7.286;2022-08-21T06:49:40;20.98;;;8.85;;
55537;SDS011;41383;51.418;7.286;2022-08-21T06:52:09;21.30;;;10.07;;
55537;SDS011;41383;51.418;7.286;2022-08-21T06:54:36;19.60;;;9.48;;
55537;SDS011;41383;51.418;7.286;2022-08-21T06:57:02;15.27;;;10.25;;
55537;SDS011;41383;51.418;7.286;2022-08-21T06:59:27;22.30;;;9.48;;
55537;SDS011;41383;51.418;7.286;2022-08-21T07:01:53;14.02;;;9.90;;
55537;SDS011;41383;51.418;7.286;2022-08-21T07:04:18;25.23;;;10.60;;
55537;SDS011;41383;51.418;7.286;2022-08-21T07:06:44;16.23;;;10.30;;
55537;SDS011;41383;51.418;7.286;2022-08-21T07:09:10;21.90;;;11.73;;
55537;SDS011;41383;51.418;7.286;2022-08-21T07:11:35;25.20;;;10.63;;
55537;SDS011;41383;51.418;7.286;2022-08-21T07:14:02;15.85;;;9.77;;
55537;SDS011;41383;51.418;7.286;2022-08-21T07:16:28;18.83;;;9.13;;
55537;SDS011;41383;51.418;7.286;2022-08-21T07:18:53;12.07;;;8.65;;
55537;SDS011;41383;51.418;7.286;2022-08-21T07:21:18;25.70;;;10.23;;
55537;SDS011;41383;51.418;7.286;2022-08-21T07:23:46;17.58;;;8.60;;
55537;SDS011;41383;51.418;7.286;2022-08-21T07:26:14;19.15;;;10.07;;
55537;SDS011;41383;51.418;7.286;2022-08-21T07:28:41;13.60;;;8.07;;
55537;SDS011;41383;51.418;7.286;2022-08-21T07:31:08;17.30;;;9.90;;
55537;SDS011;41383;51.418;7.286;2022-08-21T07:33:34;17.05;;;8.95;;
55537;SDS011;41383;51.418;7.286;2022-08-21T07:36:01;18.33;;;9.32;;
55537;SDS011;41383;51.418;7.286;2022-08-21T07:38:26;18.02;;;10.40;;
55537;SDS011;41383;51.418;7.286;2022-08-21T07:40:52;19.92;;;11.45;;
55537;SDS011;41383;51.418;7.286;2022-08-21T07:43:20;19.52;;;9.43;;
55537;SDS011;41383;51.418;7.286;2022-08-21T07:45:46;19.35;;;10.15;;
55537;SDS011;41383;51.418;7.286;2022-08-21T07:48:14;16.35;;;9.27;;
55537;SDS011;41383;51.418;7.286;2022-08-21T07:50:39;16.25;;;10.18;;
55537;SDS011;41383;51.418;7.286;2022-08-21T07:53:06;18.15;;;7.88;;
55537;SDS011;41383;51.418;7.286;2022-08-21T07:55:32;17.45;;;8.77;;
55537;SDS011;41383;51.418;7.286;2022-08-21T07:57:57;18.95;;;8.90;;
55537;SDS011;41383;51.418;7.286;2022-08-21T08:00:26;11.17;;;6.53;;
55537;SDS011;41383;51.418;7.286;2022-08-21T08:02:53;12.65;;;5.72;;
55537;SDS011;41383;51.418;7.286;2022-08-21T08:05:22;11.85;;;5.90;;
55537;SDS011;41383;51.418;7.286;2022-08-21T08:07:50;13.57;;;5.57;;
55537;SDS011;41383;51.418;7.286;2022-08-21T08:10:15;7.72;;;3.80;;
55537;SDS011;41383;51.418;7.286;2022-08-21T08:12:42;11.90;;;4.28;;
55537;SDS011;41383;51.418;7.286;2022-08-21T08:15:10;13.88;;;4.15;;
55537;SDS011;41383;51.418;7.286;2022-08-21T08:17:38;6.88;;;3.20;;
55537;SDS011;41383;51.418;7.286;2022-08-21T08:20:07;12.50;;;3.67;;
55537;SDS011;41383;51.418;7.286;2022-08-21T08:22:35;11.40;;;5.47;;
55537;SDS011;41383;51.418;7.286;2022-08-21T08:25:02;11.25;;;3.78;;
55537;SDS011;41383;51.418;7.286;2022-08-21T08:27:29;7.13;;;3.25;;
55537;SDS011;41383;51.418;7.286;2022-08-21T08:29:55;8.57;;;3.50;;
55537;SDS011;41383;51.418;7.286;2022-08-21T08:32:20;7.30;;;2.85;;
55537;SDS011;41383;51.418;7.286;2022-08-21T08:34:46;11.07;;;3.47;;
55537;SDS011;41383;51.418;7.286;2022-08-21T08:37:13;10.00;;;3.75;;
55537;SDS011;41383;51.418;7.286;2022-08-21T08:39:39;17.55;;;5.28;;
55537;SDS011;41383;51.418;7.286;2022-08-21T08:42:06;6.78;;;2.70;;
55537;SDS011;41383;51.418;7.286;2022-08-21T08:44:34;8.60;;;3.17;;
55537;SDS011;41383;51.418;7.286;2022-08-21T08:47:00;8.30;;;4.10;;
55537;SDS011;41383;51.418;7.286;2022-08-21T08:52:01;9.25;;;2.90;;
55537;SDS011;41383;51.418;7.286;2022-08-21T08:54:44;8.13;;;3.10;;
55537;SDS011;41383;51.418;7.286;2022-08-21T08:57:15;12.27;;;3.35;;
55537;SDS011;41383;51.418;7.286;2022-08-21T08:59:45;7.85;;;2.40;;
55537;SDS011;41383;51.418;7.286;2022-08-21T09:02:13;8.27;;;3.35;;
55537;SDS011;41383;51.418;7.286;2022-08-21T09:04:40;12.85;;;3.88;;
55537;SDS011;41383;51.418;7.286;2022-08-21T09:27:20;5.40;;;2.75;;
55537;SDS011;41383;51.418;7.286;2022-08-21T09:29:27;8.15;;;2.92;;
55537;SDS011;41383;51.418;7.286;2022-08-21T09:31:56;9.02;;;2.30;;
55537;SDS011;41383;51.418;7.286;2022-08-21T09:34:26;8.55;;;2.33;;
55537;SDS011;41383;51.418;7.286;2022-08-21T09:36:56;8.63;;;3.53;;
55537;SDS011;41383;51.418;7.286;2022-08-21T09:39:24;10.07;;;3.63;;
55537;SDS011;41383;51.418;7.286;2022-08-21T09:41:59;4.63;;;2.17;;
55537;SDS011;41383;51.418;7.286;2022-08-21T09:44:32;6.78;;;2.55;;
55537;SDS011;41383;51.418;7.286;2022-08-21T09:47:04;10.02;;;3.40;;
55537;SDS011;41383;51.418;7.286;2022-08-21T09:49:34;8.52;;;2.25;;
55537;SDS011;41383;51.418;7.286;2022-08-21T09:52:04;7.67;;;2.50;;
55537;SDS011;41383;51.418;7.286;2022-08-21T09:54:40;9.35;;;3.03;;
55537;SDS011;41383;51.418;7.286;2022-08-21T09:57:12;5.65;;;2.58;;
55537;SDS011;41383;51.418;7.286;2022-08-21T10:00:19;6.45;;;2.40;;
55537;SDS011;41383;51.418;7.286;2022-08-21T10:02:47;8.70;;;2.75;;
55537;SDS011;41383;51.418;7.286;2022-08-21T10:05:17;8.67;;;2.57;;
55537;SDS011;41383;51.418;7.286;2022-08-21T10:07:44;11.25;;;3.30;;
55537;SDS011;41383;51.418;7.286;2022-08-21T10:10:20;6.47;;;2.70;;
55537;SDS011;41383;51.418;7.286;2022-08-21T10:15:35;7.80;;;2.70;;
55537;SDS011;41383;51.418;7.286;2022-08-21T10:18:06;8.82;;;2.67;;
55537;SDS011;41383;51.418;7.286;2022-08-21T10:20:51;6.00;;;1.85;;
55537;SDS011;41383;51.418;7.286;2022-08-21T10:23:29;6.18;;;1.83;;
55537;SDS011;41383;51.418;7.286;2022-08-21T10:26:29;50.50;;;4.72;;
55537;SDS011;41383;51.418;7.286;2022-08-21T10:32:04;6.40;;;1.70;;
55537;SDS011;41383;51.418;7.286;2022-08-21T10:34:58;4.90;;;2.15;;
55537;SDS011;41383;51.418;7.286;2022-08-21T10:37:45;7.28;;;1.70;;
55537;SDS011;41383;51.418;7.286;2022-08-21T10:40:47;10.65;;;2.35;;
55537;SDS011;41383;51.418;7.286;2022-08-21T10:43:23;8.45;;;1.77;;
55537;SDS011;41383;51.418;7.286;2022-08-21T10:48:56;16.48;;;2.55;;
55537;SDS011;41383;51.418;7.286;2022-08-21T10:51:35;10.05;;;2.13;;
55537;SDS011;41383;51.418;7.286;2022-08-21T10:56:59;5.28;;;2.42;;
55537;SDS011;41383;51.418;7.286;2022-08-21T10:59:30;5.63;;;2.22;;
55537;SDS011;41383;51.418;7.286;2022-08-21T11:02:17;8.63;;;2.42;;
55537;SDS011;41383;51.418;7.286;2022-08-21T11:04:57;6.05;;;1.63;;
55537;SDS011;41383;51.418;7.286;2022-08-21T11:09:54;7.53;;;1.90;;
55537;SDS011;41383;51.418;7.286;2022-08-21T11:12:25;5.50;;;1.98;;
55537;SDS011;41383;51.418;7.286;2022-08-21T11:15:05;3.30;;;1.20;;
55537;SDS011;41383;51.418;7.286;2022-08-21T11:17:50;11.25;;;1.80;;
55537;SDS011;41383;51.418;7.286;2022-08-21T11:20:28;3.92;;;1.52;;
55537;SDS011;41383;51.418;7.286;2022-08-21T11:23:11;5.30;;;1.10;;
55537;SDS011;41383;51.418;7.286;2022-08-21T11:25:47;6.15;;;1.13;;
55537;SDS011;41383;51.418;7.286;2022-08-21T11:28:18;4.68;;;1.30;;
55537;SDS011;41383;51.418;7.286;2022-08-21T11:33:41;4.05;;;1.05;;
55537;SDS011;41383;51.418;7.286;2022-08-21T11:36:21;5.00;;;1.20;;
55537;SDS011;41383;51.418;7.286;2022-08-21T11:39:20;3.28;;;0.98;;
55537;SDS011;41383;51.418;7.286;2022-08-21T11:42:15;3.80;;;1.20;;
55537;SDS011;41383;51.418;7.286;2022-08-21T11:50:37;4.47;;;1.63;;
55537;SDS011;41383;51.418;7.286;2022-08-21T11:58:10;2.38;;;1.15;;
55537;SDS011;41383;51.418;7.286;2022-08-21T12:00:48;4.38;;;1.67;;
55537;SDS011;41383;51.418;7.286;2022-08-21T12:03:29;3.70;;;1.42;;
55537;SDS011;41383;51.418;7.286;2022-08-21T12:05:58;5.53;;;2.25;;
55537;SDS011;41383;51.418;7.286;2022-08-21T12:08:29;3.78;;;1.95;;
55537;SDS011;41383;51.418;7.286;2022-08-21T12:11:05;2.42;;;1.10;;
55537;SDS011;41383;51.418;7.286;2022-08-21T12:14:00;4.47;;;1.58;;
55537;SDS011;41383;51.418;7.286;2022-08-21T12:16:39;4.10;;;1.60;;
55537;SDS011;41383;51.418;7.286;2022-08-21T12:21:49;3.55;;;1.42;;
55537;SDS011;41383;51.418;7.286;2022-08-21T12:29:31;6.32;;;1.30;;
55537;SDS011;41383;51.418;7.286;2022-08-21T12:34:32;2.90;;;1.13;;
55537;SDS011;41383;51.418;7.286;2022-08-21T12:37:02;3.53;;;0.85;;
55537;SDS011;41383;51.418;7.286;2022-08-21T12:39:32;4.88;;;1.67;;
55537;SDS011;41383;51.418;7.286;2022-08-21T12:44:37;3.65;;;0.70;;
55537;SDS011;41383;51.418;7.286;2022-08-21T12:47:15;5.10;;;1.50;;
55537;SDS011;41383;51.418;7.286;2022-08-21T12:49:55;5.23;;;1.40;;
55537;SDS011;41383;51.418;7.286;2022-08-21T12:52:30;4.32;;;1.38;;
55537;SDS011;41383;51.418;7.286;2022-08-21T12:55:00;4.85;;;1.27;;
55537;SDS011;41383;51.418;7.286;2022-08-21T12:57:28;5.25;;;1.25;;
55537;SDS011;41383;51.418;7.286;2022-08-21T12:59:55;1.58;;;0.80;;
55537;SDS011;41383;51.418;7.286;2022-08-21T13:02:23;4.32;;;1.10;;
55537;SDS011;41383;51.418;7.286;2022-08-21T13:04:53;2.10;;;0.77;;
55537;SDS011;41383;51.418;7.286;2022-08-21T13:07:28;2.88;;;1.17;;
55537;SDS011;41383;51.418;7.286;2022-08-21T13:10:00;1.80;;;0.65;;
55537;SDS011;41383;51.418;7.286;2022-08-21T13:12:29;3.50;;;1.00;;
55537;SDS011;41383;51.418;7.286;2022-08-21T13:14:57;1.83;;;0.88;;
55537;SDS011;41383;51.418;7.286;2022-08-21T13:17:25;3.78;;;1.00;;
55537;SDS011;41383;51.418;7.286;2022-08-21T13:19:53;5.43;;;1.40;;
55537;SDS011;41383;51.418;7.286;2022-08-21T13:22:27;3.20;;;1.15;;
55537;SDS011;41383;51.418;7.286;2022-08-21T13:24:52;4.45;;;0.82;;
55537;SDS011;41383;51.418;7.286;2022-08-21T13:27:20;2.38;;;0.80;;
55537;SDS011;41383;51.418;7.286;2022-08-21T13:29:47;3.55;;;1.08;;
55537;SDS011;41383;51.418;7.286;2022-08-21T13:32:17;3.00;;;1.13;;
55537;SDS011;41383;51.418;7.286;2022-08-21T13:34:50;3.97;;;1.27;;
55537;SDS011;41383;51.418;7.286;2022-08-21T13:37:17;4.88;;;1.40;;
55537;SDS011;41383;51.418;7.286;2022-08-21T13:39:47;2.80;;;1.00;;
55537;SDS011;41383;51.418;7.286;2022-08-21T13:42:15;5.97;;;1.43;;
55537;SDS011;41383;51.418;7.286;2022-08-21T13:44:41;6.35;;;1.27;;
55537;SDS011;41383;51.418;7.286;2022-08-21T13:47:09;2.67;;;1.00;;
55537;SDS011;41383;51.418;7.286;2022-08-21T13:49:39;1.63;;;0.95;;
55537;SDS011;41383;51.418;7.286;2022-08-21T13:52:18;4.65;;;1.00;;
55537;SDS011;41383;51.418;7.286;2022-08-21T13:54:51;4.57;;;2.05;;
55537;SDS011;41383;51.418;7.286;2022-08-21T13:57:26;1.85;;;0.90;;
55537;SDS011;41383;51.418;7.286;2022-08-21T14:00:09;4.00;;;1.15;;
55537;SDS011;41383;51.418;7.286;2022-08-21T14:02:43;2.75;;;0.98;;
55537;SDS011;41383;51.418;7.286;2022-08-21T14:05:21;2.30;;;1.25;;
55537;SDS011;41383;51.418;7.286;2022-08-21T14:07:50;10.32;;;1.50;;
55537;SDS011;41383;51.418;7.286;2022-08-21T14:10:26;2.50;;;1.00;;
55537;SDS011;41383;51.418;7.286;2022-08-21T14:15:26;1.52;;;0.90;;
55537;SDS011;41383;51.418;7.286;2022-08-21T14:17:53;5.13;;;1.90;;
55537;SDS011;41383;51.418;7.286;2022-08-21T14:20:28;3.00;;;0.90;;
55537;SDS011;41383;51.418;7.286;2022-08-21T14:23:00;1.88;;;0.77;;
55537;SDS011;41383;51.418;7.286;2022-08-21T14:25:27;3.25;;;1.00;;
55537;SDS011;41383;51.418;7.286;2022-08-21T14:27:57;3.42;;;1.05;;
55537;SDS011;41383;51.418;7.286;2022-08-21T14:30:35;2.23;;;0.70;;
55537;SDS011;41383;51.418;7.286;2022-08-21T14:33:03;4.22;;;0.98;;
55537;SDS011;41383;51.418;7.286;2022-08-21T14:35:33;1.92;;;0.65;;
55537;SDS011;41383;51.418;7.286;2022-08-21T14:37:59;4.20;;;1.25;;
55537;SDS011;41383;51.418;7.286;2022-08-21T14:40:24;1.97;;;0.87;;
55537;SDS011;41383;51.418;7.286;2022-08-21T14:42:50;1.50;;;0.80;;
55537;SDS011;41383;51.418;7.286;2022-08-21T14:45:17;1.75;;;0.70;;
55537;SDS011;41383;51.418;7.286;2022-08-21T14:47:44;0.82;;;0.50;;
55537;SDS011;41383;51.418;7.286;2022-08-21T14:50:10;1.90;;;0.68;;
55537;SDS011;41383;51.418;7.286;2022-08-21T14:52:36;1.90;;;1.10;;
55537;SDS011;41383;51.418;7.286;2022-08-21T14:55:02;2.50;;;0.95;;
55537;SDS011;41383;51.418;7.286;2022-08-21T14:57:29;2.28;;;1.05;;
55537;SDS011;41383;51.418;7.286;2022-08-21T14:59:56;2.20;;;0.93;;
55537;SDS011;41383;51.418;7.286;2022-08-21T15:02:21;3.78;;;0.98;;
55537;SDS011;41383;51.418;7.286;2022-08-21T15:04:46;3.00;;;1.10;;
55537;SDS011;41383;51.418;7.286;2022-08-21T15:07:11;1.70;;;0.93;;
55537;SDS011;41383;51.418;7.286;2022-08-21T15:09:37;1.77;;;1.07;;
55537;SDS011;41383;51.418;7.286;2022-08-21T15:12:02;3.38;;;1.30;;
55537;SDS011;41383;51.418;7.286;2022-08-21T15:14:31;2.70;;;1.13;;
55537;SDS011;41383;51.418;7.286;2022-08-21T15:16:59;5.28;;;2.78;;
55537;SDS011;41383;51.418;7.286;2022-08-21T15:19:24;3.35;;;1.77;;
55537;SDS011;41383;51.418;7.286;2022-08-21T15:21:50;2.58;;;1.20;;
55537;SDS011;41383;51.418;7.286;2022-08-21T15:24:15;3.60;;;1.10;;
55537;SDS011;41383;51.418;7.286;2022-08-21T15:26:40;4.47;;;1.20;;
55537;SDS011;41383;51.418;7.286;2022-08-21T15:29:07;5.38;;;1.45;;
55537;SDS011;41383;51.418;7.286;2022-08-21T15:31:33;2.22;;;1.15;;
55537;SDS011;41383;51.418;7.286;2022-08-21T15:33:59;3.00;;;1.67;;
55537;SDS011;41383;51.418;7.286;2022-08-21T15:36:25;4.82;;;1.58;;
55537;SDS011;41383;51.418;7.286;2022-08-21T15:38:50;10.15;;;1.85;;
55537;SDS011;41383;51.418;7.286;2022-08-21T15:41:15;2.23;;;1.00;;
55537;SDS011;41383;51.418;7.286;2022-08-21T15:43:45;4.00;;;1.83;;
55537;SDS011;41383;51.418;7.286;2022-08-21T15:46:13;2.25;;;1.10;;
55537;SDS011;41383;51.418;7.286;2022-08-21T15:48:40;2.70;;;1.33;;
55537;SDS011;41383;51.418;7.286;2022-08-21T15:51:06;4.32;;;1.13;;
55537;SDS011;41383;51.418;7.286;2022-08-21T15:53:34;2.17;;;1.00;;
55537;SDS011;41383;51.418;7.286;2022-08-21T15:56:02;2.22;;;1.00;;
55537;SDS011;41383;51.418;7.286;2022-08-21T15:58:28;4.75;;;1.30;;